If you wish to contribute or participate in the discussions about articles you are invited to join SKYbrary as a registered user

 Actions

Belo Horizonte - Tancredo Neves/Confins International Airport

From SKYbrary Wiki

SBCF
Airport
ICAO: SBCF – IATA: CNF
Summary
Name Belo Horizonte - Tancredo Neves/Confins International Airport
Region South America and Caribbean
Territory Brazil BR.gif
Location Confins, Minas Gerais
Serving Belo Horizonte
Elevation 827.532 m
2,715 ft
2,715 ft827.532 m
Coordinates 19° 38' 6.94" S, 43° 57' 53.68" W
Runways
Designator Length Width Surface ROPS
16/34 3000 m9,842.52 ft
45 m147.638 ft
ASP yes/yes


METAR
Observation SBCF 242000Z 33004KT 9999 SCT040 24/12 Q1019
Station Belo Horizonte
Date/Time 24 June 2019 20:00:00
Wind direction 330°
Wind speed 04 kts
Lowest cloud amount scattered clouds
Temperature 24°C
Dew point 12°C
Humidity 47%
QNH 1019 hPa
Weather condition n/a

Tancredo Neves/Confins International Airport, popularly known as Confins International Airport, is located in the metropolitan area of Belo Horizonte, in the municipality of Confins.

Climatology

Tropical Savanna climate (Köppen climate classification Aw).

Maps

Terrain

Loading map...

Airport Layout

Loading map...


Accidents & Serious Incidents at or in vicinity of SBCF

None on SKYbrary